sensor_id;sensor_type;location;lat;lon;timestamp;temperature;humidity
28484;DHT22;15704;48.834;8.736;2023-03-14T00:01:26;8.20;99.90
28484;DHT22;15704;48.834;8.736;2023-03-14T00:03:53;8.20;99.90
28484;DHT22;15704;48.834;8.736;2023-03-14T00:06:20;8.20;99.90
28484;DHT22;15704;48.834;8.736;2023-03-14T00:08:47;8.20;99.90
28484;DHT22;15704;48.834;8.736;2023-03-14T00:11:19;8.20;99.90
28484;DHT22;15704;48.834;8.736;2023-03-14T00:13:48;8.20;99.90
28484;DHT22;15704;48.834;8.736;2023-03-14T00:16:15;8.20;99.90
28484;DHT22;15704;48.834;8.736;2023-03-14T00:18:42;8.10;99.90
28484;DHT22;15704;48.834;8.736;2023-03-14T00:21:10;8.20;99.90
28484;DHT22;15704;48.834;8.736;2023-03-14T00:23:39;8.20;99.90
28484;DHT22;15704;48.834;8.736;2023-03-14T00:26:12;8.10;99.90
28484;DHT22;15704;48.834;8.736;2023-03-14T00:28:40;8.10;99.90
28484;DHT22;15704;48.834;8.736;2023-03-14T00:31:09;8.10;99.90
28484;DHT22;15704;48.834;8.736;2023-03-14T00:33:36;8.10;99.90
28484;DHT22;15704;48.834;8.736;2023-03-14T00:36:05;8.10;99.90
28484;DHT22;15704;48.834;8.736;2023-03-14T00:38:35;8.10;99.90
28484;DHT22;15704;48.834;8.736;2023-03-14T00:41:08;8.10;99.90
28484;DHT22;15704;48.834;8.736;2023-03-14T00:43:35;8.10;99.90
28484;DHT22;15704;48.834;8.736;2023-03-14T00:46:03;8.10;99.90
28484;DHT22;15704;48.834;8.736;2023-03-14T00:48:30;8.10;99.90
28484;DHT22;15704;48.834;8.736;2023-03-14T00:50:56;8.10;99.90
28484;DHT22;15704;48.834;8.736;2023-03-14T00:53:23;8.10;99.90
28484;DHT22;15704;48.834;8.736;2023-03-14T00:55:50;8.10;99.90
28484;DHT22;15704;48.834;8.736;2023-03-14T00:58:17;8.10;99.90
28484;DHT22;15704;48.834;8.736;2023-03-14T01:00:45;8.10;99.90
28484;DHT22;15704;48.834;8.736;2023-03-14T01:03:13;8.10;99.90
28484;DHT22;15704;48.834;8.736;2023-03-14T01:05:40;8.10;99.90
28484;DHT22;15704;48.834;8.736;2023-03-14T01:08:07;8.10;99.90
28484;DHT22;15704;48.834;8.736;2023-03-14T01:10:38;8.20;99.90
28484;DHT22;15704;48.834;8.736;2023-03-14T01:13:05;8.20;99.90
28484;DHT22;15704;48.834;8.736;2023-03-14T01:15:37;8.20;99.90
28484;DHT22;15704;48.834;8.736;2023-03-14T01:18:04;8.20;99.90
28484;DHT22;15704;48.834;8.736;2023-03-14T01:20:31;8.30;99.90
28484;DHT22;15704;48.834;8.736;2023-03-14T01:22:58;8.30;99.90
28484;DHT22;15704;48.834;8.736;2023-03-14T01:25:25;8.30;99.90
28484;DHT22;15704;48.834;8.736;2023-03-14T01:27:52;8.20;99.90
28484;DHT22;15704;48.834;8.736;2023-03-14T01:30:19;8.20;99.90
28484;DHT22;15704;48.834;8.736;2023-03-14T01:32:46;8.20;99.90
28484;DHT22;15704;48.834;8.736;2023-03-14T01:35:12;8.10;99.90
28484;DHT22;15704;48.834;8.736;2023-03-14T01:37:39;8.10;99.90
28484;DHT22;15704;48.834;8.736;2023-03-14T01:40:06;8.10;99.90
28484;DHT22;15704;48.834;8.736;2023-03-14T01:42:33;8.00;99.90
28484;DHT22;15704;48.834;8.736;2023-03-14T01:45:01;8.00;99.90
28484;DHT22;15704;48.834;8.736;2023-03-14T01:47:28;8.00;99.90
28484;DHT22;15704;48.834;8.736;2023-03-14T01:50:04;7.90;99.90
28484;DHT22;15704;48.834;8.736;2023-03-14T01:52:37;7.90;99.90
28484;DHT22;15704;48.834;8.736;2023-03-14T01:55:15;7.90;99.90
28484;DHT22;15704;48.834;8.736;2023-03-14T01:57:45;7.80;99.90
28484;DHT22;15704;48.834;8.736;2023-03-14T02:00:20;7.80;99.90
28484;DHT22;15704;48.834;8.736;2023-03-14T02:02:55;7.80;99.90
28484;DHT22;15704;48.834;8.736;2023-03-14T02:05:26;7.80;99.90
28484;DHT22;15704;48.834;8.736;2023-03-14T02:07:56;7.80;99.90
28484;DHT22;15704;48.834;8.736;2023-03-14T02:10:27;7.80;99.90
28484;DHT22;15704;48.834;8.736;2023-03-14T02:12:56;7.80;99.90
28484;DHT22;15704;48.834;8.736;2023-03-14T02:15:23;7.80;99.90
28484;DHT22;15704;48.834;8.736;2023-03-14T02:17:50;7.70;99.90
28484;DHT22;15704;48.834;8.736;2023-03-14T02:20:37;7.70;99.90
28484;DHT22;15704;48.834;8.736;2023-03-14T02:23:05;7.70;99.90
28484;DHT22;15704;48.834;8.736;2023-03-14T02:26:08;7.70;99.90
28484;DHT22;15704;48.834;8.736;2023-03-14T02:28:35;7.70;99.90
28484;DHT22;15704;48.834;8.736;2023-03-14T02:31:02;7.70;99.90
28484;DHT22;15704;48.834;8.736;2023-03-14T02:33:29;7.60;99.90
28484;DHT22;15704;48.834;8.736;2023-03-14T02:36:02;7.60;99.90
28484;DHT22;15704;48.834;8.736;2023-03-14T02:41:03;7.60;99.90
28484;DHT22;15704;48.834;8.736;2023-03-14T02:43:30;7.60;99.90
28484;DHT22;15704;48.834;8.736;2023-03-14T02:45:57;7.60;99.90
28484;DHT22;15704;48.834;8.736;2023-03-14T02:48:31;7.60;99.90
28484;DHT22;15704;48.834;8.736;2023-03-14T02:51:00;7.60;99.90
28484;DHT22;15704;48.834;8.736;2023-03-14T02:53:30;7.50;99.90
28484;DHT22;15704;48.834;8.736;2023-03-14T02:56:00;7.60;99.90
28484;DHT22;15704;48.834;8.736;2023-03-14T02:58:28;7.50;99.90
28484;DHT22;15704;48.834;8.736;2023-03-14T03:00:55;7.50;99.90
28484;DHT22;15704;48.834;8.736;2023-03-14T03:03:21;7.50;99.90
28484;DHT22;15704;48.834;8.736;2023-03-14T03:05:54;7.50;99.90
28484;DHT22;15704;48.834;8.736;2023-03-14T03:08:21;7.50;99.90
28484;DHT22;15704;48.834;8.736;2023-03-14T03:10:49;7.50;99.90
28484;DHT22;15704;48.834;8.736;2023-03-14T03:13:17;7.50;99.90
28484;DHT22;15704;48.834;8.736;2023-03-14T03:15:44;7.50;99.90
28484;DHT22;15704;48.834;8.736;2023-03-14T03:18:11;7.50;99.90
28484;DHT22;15704;48.834;8.736;2023-03-14T03:20:38;7.50;99.90
28484;DHT22;15704;48.834;8.736;2023-03-14T03:23:05;7.40;99.90
28484;DHT22;15704;48.834;8.736;2023-03-14T03:25:32;7.50;99.90
28484;DHT22;15704;48.834;8.736;2023-03-14T03:27:58;7.50;99.90
28484;DHT22;15704;48.834;8.736;2023-03-14T03:30:25;7.40;99.90
28484;DHT22;15704;48.834;8.736;2023-03-14T03:32:52;7.40;99.90
28484;DHT22;15704;48.834;8.736;2023-03-14T03:35:18;7.40;99.90
28484;DHT22;15704;48.834;8.736;2023-03-14T03:37:45;7.40;99.90
28484;DHT22;15704;48.834;8.736;2023-03-14T03:40:12;7.40;99.90
28484;DHT22;15704;48.834;8.736;2023-03-14T03:42:38;7.40;99.90
28484;DHT22;15704;48.834;8.736;2023-03-14T03:45:05;7.40;99.90
28484;DHT22;15704;48.834;8.736;2023-03-14T03:47:32;7.40;99.90
28484;DHT22;15704;48.834;8.736;2023-03-14T03:49:59;7.30;99.90
28484;DHT22;15704;48.834;8.736;2023-03-14T03:52:26;7.30;99.90
28484;DHT22;15704;48.834;8.736;2023-03-14T03:54:52;7.30;99.90
28484;DHT22;15704;48.834;8.736;2023-03-14T03:57:20;7.30;99.90
28484;DHT22;15704;48.834;8.736;2023-03-14T03:59:46;7.30;99.90
28484;DHT22;15704;48.834;8.736;2023-03-14T04:02:13;7.30;99.90
28484;DHT22;15704;48.834;8.736;2023-03-14T04:04:40;7.30;99.90
28484;DHT22;15704;48.834;8.736;2023-03-14T04:07:06;7.30;99.90
28484;DHT22;15704;48.834;8.736;2023-03-14T04:09:33;7.30;99.90
28484;DHT22;15704;48.834;8.736;2023-03-14T04:12:00;7.30;99.90
28484;DHT22;15704;48.834;8.736;2023-03-14T04:14:27;7.30;99.90
28484;DHT22;15704;48.834;8.736;2023-03-14T04:16:53;7.30;99.90
28484;DHT22;15704;48.834;8.736;2023-03-14T04:19:20;7.30;99.90
28484;DHT22;15704;48.834;8.736;2023-03-14T04:21:47;7.30;99.90
28484;DHT22;15704;48.834;8.736;2023-03-14T04:24:14;7.20;99.90
28484;DHT22;15704;48.834;8.736;2023-03-14T04:26:41;7.30;99.90
28484;DHT22;15704;48.834;8.736;2023-03-14T04:29:07;7.30;99.90
28484;DHT22;15704;48.834;8.736;2023-03-14T04:31:36;7.20;99.90
28484;DHT22;15704;48.834;8.736;2023-03-14T04:34:02;7.20;99.90
28484;DHT22;15704;48.834;8.736;2023-03-14T04:36:29;7.20;99.90
28484;DHT22;15704;48.834;8.736;2023-03-14T04:38:56;7.30;99.90
28484;DHT22;15704;48.834;8.736;2023-03-14T04:41:22;7.20;99.90
28484;DHT22;15704;48.834;8.736;2023-03-14T04:43:49;7.20;99.90
28484;DHT22;15704;48.834;8.736;2023-03-14T04:46:16;7.20;99.90
28484;DHT22;15704;48.834;8.736;2023-03-14T04:48:43;7.20;99.90
28484;DHT22;15704;48.834;8.736;2023-03-14T04:51:09;7.20;99.90
28484;DHT22;15704;48.834;8.736;2023-03-14T04:53:36;7.30;99.90
28484;DHT22;15704;48.834;8.736;2023-03-14T04:56:03;7.30;99.90
28484;DHT22;15704;48.834;8.736;2023-03-14T04:58:30;7.30;99.90
28484;DHT22;15704;48.834;8.736;2023-03-14T05:01:04;7.20;99.90
28484;DHT22;15704;48.834;8.736;2023-03-14T05:03:31;7.30;99.90
28484;DHT22;15704;48.834;8.736;2023-03-14T05:05:58;7.30;99.90
28484;DHT22;15704;48.834;8.736;2023-03-14T05:08:25;7.30;99.90
28484;DHT22;15704;48.834;8.736;2023-03-14T05:10:56;7.30;99.90
28484;DHT22;15704;48.834;8.736;2023-03-14T05:13:23;7.30;99.90
28484;DHT22;15704;48.834;8.736;2023-03-14T05:15:50;7.30;99.90
28484;DHT22;15704;48.834;8.736;2023-03-14T05:18:18;7.20;99.90
28484;DHT22;15704;48.834;8.736;2023-03-14T05:20:45;7.20;99.90
28484;DHT22;15704;48.834;8.736;2023-03-14T05:23:12;7.30;99.90
28484;DHT22;15704;48.834;8.736;2023-03-14T05:25:38;7.20;99.90
28484;DHT22;15704;48.834;8.736;2023-03-14T05:28:05;7.30;99.90
28484;DHT22;15704;48.834;8.736;2023-03-14T05:30:32;7.20;99.90
28484;DHT22;15704;48.834;8.736;2023-03-14T05:33:00;7.30;99.90
28484;DHT22;15704;48.834;8.736;2023-03-14T05:35:26;7.30;99.90
28484;DHT22;15704;48.834;8.736;2023-03-14T05:37:53;7.30;99.90
28484;DHT22;15704;48.834;8.736;2023-03-14T05:40:20;7.30;99.90
28484;DHT22;15704;48.834;8.736;2023-03-14T05:42:47;7.40;99.90
28484;DHT22;15704;48.834;8.736;2023-03-14T05:45:13;7.40;99.90
28484;DHT22;15704;48.834;8.736;2023-03-14T05:47:40;7.40;99.90
28484;DHT22;15704;48.834;8.736;2023-03-14T05:50:07;7.40;99.90
28484;DHT22;15704;48.834;8.736;2023-03-14T05:52:34;7.40;99.90
28484;DHT22;15704;48.834;8.736;2023-03-14T05:55:01;7.40;99.90
28484;DHT22;15704;48.834;8.736;2023-03-14T05:57:28;7.40;99.90
28484;DHT22;15704;48.834;8.736;2023-03-14T05:59:54;7.40;99.90
28484;DHT22;15704;48.834;8.736;2023-03-14T06:02:21;7.40;99.90
28484;DHT22;15704;48.834;8.736;2023-03-14T06:04:48;7.40;99.90
28484;DHT22;15704;48.834;8.736;2023-03-14T06:07:14;7.40;99.90
28484;DHT22;15704;48.834;8.736;2023-03-14T06:09:41;7.40;99.90
28484;DHT22;15704;48.834;8.736;2023-03-14T06:12:08;7.30;99.90
28484;DHT22;15704;48.834;8.736;2023-03-14T06:14:35;7.40;99.90
28484;DHT22;15704;48.834;8.736;2023-03-14T06:17:01;7.40;99.90
28484;DHT22;15704;48.834;8.736;2023-03-14T06:19:28;7.40;99.90
28484;DHT22;15704;48.834;8.736;2023-03-14T06:21:55;7.40;99.90
28484;DHT22;15704;48.834;8.736;2023-03-14T06:24:22;7.40;99.90
28484;DHT22;15704;48.834;8.736;2023-03-14T06:26:48;7.40;99.90
28484;DHT22;15704;48.834;8.736;2023-03-14T06:29:15;7.50;99.90
28484;DHT22;15704;48.834;8.736;2023-03-14T06:31:42;7.40;99.90
28484;DHT22;15704;48.834;8.736;2023-03-14T06:34:09;7.40;99.90
28484;DHT22;15704;48.834;8.736;2023-03-14T06:36:35;7.40;99.90
28484;DHT22;15704;48.834;8.736;2023-03-14T06:39:02;7.50;99.90
28484;DHT22;15704;48.834;8.736;2023-03-14T06:41:29;7.50;99.90
28484;DHT22;15704;48.834;8.736;2023-03-14T06:43:55;7.50;99.90
28484;DHT22;15704;48.834;8.736;2023-03-14T06:46:22;7.50;99.90
28484;DHT22;15704;48.834;8.736;2023-03-14T06:48:49;7.60;99.90
28484;DHT22;15704;48.834;8.736;2023-03-14T06:51:16;7.60;99.90
28484;DHT22;15704;48.834;8.736;2023-03-14T06:53:42;7.70;99.90
28484;DHT22;15704;48.834;8.736;2023-03-14T06:56:09;7.80;99.90
28484;DHT22;15704;48.834;8.736;2023-03-14T06:58:36;7.90;99.90
28484;DHT22;15704;48.834;8.736;2023-03-14T07:01:03;8.00;99.90
28484;DHT22;15704;48.834;8.736;2023-03-14T07:03:30;8.20;99.90
28484;DHT22;15704;48.834;8.736;2023-03-14T07:05:57;8.30;99.90
28484;DHT22;15704;48.834;8.736;2023-03-14T07:08:24;8.30;99.90
28484;DHT22;15704;48.834;8.736;2023-03-14T07:10:50;8.50;99.90
28484;DHT22;15704;48.834;8.736;2023-03-14T07:13:18;8.60;99.90
28484;DHT22;15704;48.834;8.736;2023-03-14T07:15:44;8.70;99.90
28484;DHT22;15704;48.834;8.736;2023-03-14T07:18:11;8.70;99.90
28484;DHT22;15704;48.834;8.736;2023-03-14T07:20:39;8.90;99.90
28484;DHT22;15704;48.834;8.736;2023-03-14T07:23:06;9.00;99.90
28484;DHT22;15704;48.834;8.736;2023-03-14T07:25:33;9.00;99.90
28484;DHT22;15704;48.834;8.736;2023-03-14T07:27:59;9.00;99.90
28484;DHT22;15704;48.834;8.736;2023-03-14T07:30:26;9.10;99.90
28484;DHT22;15704;48.834;8.736;2023-03-14T07:32:53;9.10;99.90
28484;DHT22;15704;48.834;8.736;2023-03-14T07:35:20;9.30;99.90
28484;DHT22;15704;48.834;8.736;2023-03-14T07:37:46;9.40;99.90
28484;DHT22;15704;48.834;8.736;2023-03-14T07:40:13;9.60;99.90
28484;DHT22;15704;48.834;8.736;2023-03-14T07:42:43;9.60;99.90
28484;DHT22;15704;48.834;8.736;2023-03-14T07:45:10;9.70;99.90
28484;DHT22;15704;48.834;8.736;2023-03-14T07:47:38;9.80;99.90
28484;DHT22;15704;48.834;8.736;2023-03-14T07:50:05;9.80;99.90
28484;DHT22;15704;48.834;8.736;2023-03-14T07:52:32;9.90;99.90
28484;DHT22;15704;48.834;8.736;2023-03-14T07:54:59;9.80;99.90
28484;DHT22;15704;48.834;8.736;2023-03-14T07:57:26;10.00;99.90
28484;DHT22;15704;48.834;8.736;2023-03-14T07:59:52;10.00;99.90
28484;DHT22;15704;48.834;8.736;2023-03-14T08:02:19;10.00;99.90
28484;DHT22;15704;48.834;8.736;2023-03-14T08:04:49;10.00;99.90
28484;DHT22;15704;48.834;8.736;2023-03-14T08:07:16;10.00;99.90
28484;DHT22;15704;48.834;8.736;2023-03-14T08:09:43;9.90;99.90
28484;DHT22;15704;48.834;8.736;2023-03-14T08:12:10;9.90;99.90
28484;DHT22;15704;48.834;8.736;2023-03-14T08:14:36;9.90;99.90
28484;DHT22;15704;48.834;8.736;2023-03-14T08:17:04;9.90;99.90
28484;DHT22;15704;48.834;8.736;2023-03-14T08:19:32;9.90;99.90
28484;DHT22;15704;48.834;8.736;2023-03-14T08:21:59;9.90;99.90
28484;DHT22;15704;48.834;8.736;2023-03-14T08:24:26;10.00;99.90
28484;DHT22;15704;48.834;8.736;2023-03-14T08:26:52;10.00;99.90
28484;DHT22;15704;48.834;8.736;2023-03-14T08:29:19;10.10;99.90
28484;DHT22;15704;48.834;8.736;2023-03-14T08:31:46;10.10;99.90
28484;DHT22;15704;48.834;8.736;2023-03-14T08:34:15;10.10;99.90
28484;DHT22;15704;48.834;8.736;2023-03-14T08:36:42;10.10;99.90
28484;DHT22;15704;48.834;8.736;2023-03-14T08:39:09;10.00;99.90
28484;DHT22;15704;48.834;8.736;2023-03-14T08:41:36;10.10;99.90
28484;DHT22;15704;48.834;8.736;2023-03-14T08:44:08;10.00;99.90
28484;DHT22;15704;48.834;8.736;2023-03-14T08:46:35;10.00;99.90
28484;DHT22;15704;48.834;8.736;2023-03-14T08:49:02;10.10;99.90
28484;DHT22;15704;48.834;8.736;2023-03-14T08:51:29;10.10;99.90
28484;DHT22;15704;48.834;8.736;2023-03-14T08:53:56;10.10;99.90
28484;DHT22;15704;48.834;8.736;2023-03-14T08:56:23;10.20;99.90
28484;DHT22;15704;48.834;8.736;2023-03-14T08:58:51;10.20;99.90
28484;DHT22;15704;48.834;8.736;2023-03-14T09:01:18;10.10;99.90
28484;DHT22;15704;48.834;8.736;2023-03-14T09:03:45;10.10;99.90
28484;DHT22;15704;48.834;8.736;2023-03-14T09:06:14;10.20;99.90
28484;DHT22;15704;48.834;8.736;2023-03-14T09:08:44;10.20;99.90
28484;DHT22;15704;48.834;8.736;2023-03-14T09:11:12;10.30;99.90
28484;DHT22;15704;48.834;8.736;2023-03-14T09:13:39;10.20;99.90
28484;DHT22;15704;48.834;8.736;2023-03-14T09:16:06;10.10;99.90
28484;DHT22;15704;48.834;8.736;2023-03-14T09:18:34;10.20;99.90
28484;DHT22;15704;48.834;8.736;2023-03-14T09:21:01;10.50;99.90
28484;DHT22;15704;48.834;8.736;2023-03-14T09:23:28;10.30;99.90
28484;DHT22;15704;48.834;8.736;2023-03-14T09:25:58;10.40;99.90
28484;DHT22;15704;48.834;8.736;2023-03-14T09:28:25;10.40;99.90
28484;DHT22;15704;48.834;8.736;2023-03-14T09:30:52;10.50;99.90
28484;DHT22;15704;48.834;8.736;2023-03-14T09:33:19;10.50;99.90
28484;DHT22;15704;48.834;8.736;2023-03-14T09:35:46;10.50;99.90
28484;DHT22;15704;48.834;8.736;2023-03-14T09:38:13;10.70;99.90
28484;DHT22;15704;48.834;8.736;2023-03-14T09:40:40;10.70;99.90
28484;DHT22;15704;48.834;8.736;2023-03-14T09:43:12;10.70;99.90
28484;DHT22;15704;48.834;8.736;2023-03-14T09:45:41;10.80;99.90
28484;DHT22;15704;48.834;8.736;2023-03-14T09:48:16;10.90;99.90
28484;DHT22;15704;48.834;8.736;2023-03-14T09:50:48;10.90;99.90
28484;DHT22;15704;48.834;8.736;2023-03-14T09:53:20;11.10;99.90
28484;DHT22;15704;48.834;8.736;2023-03-14T09:55:50;11.20;99.90
28484;DHT22;15704;48.834;8.736;2023-03-14T09:58:20;11.40;99.90
28484;DHT22;15704;48.834;8.736;2023-03-14T10:00:48;11.50;99.90
28484;DHT22;15704;48.834;8.736;2023-03-14T10:05:50;11.50;99.90
28484;DHT22;15704;48.834;8.736;2023-03-14T10:08:17;11.50;99.90
28484;DHT22;15704;48.834;8.736;2023-03-14T10:10:43;11.60;99.90
28484;DHT22;15704;48.834;8.736;2023-03-14T10:13:27;11.60;99.90
28484;DHT22;15704;48.834;8.736;2023-03-14T10:16:03;11.40;99.90
28484;DHT22;15704;48.834;8.736;2023-03-14T10:18:33;11.40;99.90
28484;DHT22;15704;48.834;8.736;2023-03-14T10:21:04;11.40;99.90
28484;DHT22;15704;48.834;8.736;2023-03-14T10:23:33;11.40;99.90
28484;DHT22;15704;48.834;8.736;2023-03-14T10:26:14;11.40;99.90
28484;DHT22;15704;48.834;8.736;2023-03-14T10:28:50;11.40;99.90
28484;DHT22;15704;48.834;8.736;2023-03-14T10:31:18;11.40;99.90
28484;DHT22;15704;48.834;8.736;2023-03-14T10:34:02;11.40;99.90
28484;DHT22;15704;48.834;8.736;2023-03-14T10:36:33;11.10;99.90
28484;DHT22;15704;48.834;8.736;2023-03-14T10:39:25;11.10;99.90
28484;DHT22;15704;48.834;8.736;2023-03-14T10:41:54;11.10;99.90
28484;DHT22;15704;48.834;8.736;2023-03-14T10:44:24;11.20;99.90
28484;DHT22;15704;48.834;8.736;2023-03-14T10:46:58;11.30;99.90
28484;DHT22;15704;48.834;8.736;2023-03-14T10:51:54;10.80;99.90
28484;DHT22;15704;48.834;8.736;2023-03-14T10:54:22;10.90;99.90
28484;DHT22;15704;48.834;8.736;2023-03-14T10:56:57;10.90;99.90
28484;DHT22;15704;48.834;8.736;2023-03-14T10:59:27;10.80;99.90
28484;DHT22;15704;48.834;8.736;2023-03-14T11:07:41;10.30;99.90
28484;DHT22;15704;48.834;8.736;2023-03-14T11:10:20;10.40;99.90
28484;DHT22;15704;48.834;8.736;2023-03-14T11:13:26;10.40;99.90
28484;DHT22;15704;48.834;8.736;2023-03-14T11:27:44;10.00;99.90
28484;DHT22;15704;48.834;8.736;2023-03-14T11:30:39;9.60;99.90
28484;DHT22;15704;48.834;8.736;2023-03-14T11:33:18;9.60;99.90
28484;DHT22;15704;48.834;8.736;2023-03-14T11:36:04;9.40;99.90
28484;DHT22;15704;48.834;8.736;2023-03-14T11:38:47;9.40;99.90
28484;DHT22;15704;48.834;8.736;2023-03-14T11:41:33;9.10;99.90
28484;DHT22;15704;48.834;8.736;2023-03-14T11:44:09;9.10;99.90
28484;DHT22;15704;48.834;8.736;2023-03-14T11:46:41;9.10;99.90
28484;DHT22;15704;48.834;8.736;2023-03-14T11:52:01;9.60;99.90
28484;DHT22;15704;48.834;8.736;2023-03-14T11:54:55;9.40;99.90
28484;DHT22;15704;48.834;8.736;2023-03-14T11:57:24;9.10;99.90
28484;DHT22;15704;48.834;8.736;2023-03-14T12:05:39;8.70;99.90
28484;DHT22;15704;48.834;8.736;2023-03-14T12:13:15;8.10;99.90
28484;DHT22;15704;48.834;8.736;2023-03-14T12:15:57;8.00;99.90
28484;DHT22;15704;48.834;8.736;2023-03-14T12:18:33;7.80;99.90
28484;DHT22;15704;48.834;8.736;2023-03-14T12:21:03;7.30;99.90
28484;DHT22;15704;48.834;8.736;2023-03-14T12:23:55;7.00;99.90
28484;DHT22;15704;48.834;8.736;2023-03-14T12:26:27;7.30;99.90
28484;DHT22;15704;48.834;8.736;2023-03-14T12:29:15;7.50;99.90
28484;DHT22;15704;48.834;8.736;2023-03-14T12:31:45;7.70;99.90
28484;DHT22;15704;48.834;8.736;2023-03-14T12:41:52;7.70;99.90
28484;DHT22;15704;48.834;8.736;2023-03-14T12:49:48;7.70;99.90
28484;DHT22;15704;48.834;8.736;2023-03-14T12:52:34;7.70;99.90
28484;DHT22;15704;48.834;8.736;2023-03-14T12:55:12;7.80;99.90
28484;DHT22;15704;48.834;8.736;2023-03-14T12:57:54;7.60;99.90
28484;DHT22;15704;48.834;8.736;2023-03-14T13:00:31;7.70;99.90
28484;DHT22;15704;48.834;8.736;2023-03-14T13:03:19;7.90;99.90
28484;DHT22;15704;48.834;8.736;2023-03-14T13:06:01;8.20;99.90
28484;DHT22;15704;48.834;8.736;2023-03-14T13:08:41;8.10;99.90
28484;DHT22;15704;48.834;8.736;2023-03-14T13:11:21;8.40;99.90
28484;DHT22;15704;48.834;8.736;2023-03-14T13:13:52;8.20;99.90
28484;DHT22;15704;48.834;8.736;2023-03-14T13:16:22;8.10;99.90
28484;DHT22;15704;48.834;8.736;2023-03-14T13:18:51;8.30;99.90
28484;DHT22;15704;48.834;8.736;2023-03-14T13:21:27;8.30;99.90
28484;DHT22;15704;48.834;8.736;2023-03-14T13:24:05;8.30;99.90
28484;DHT22;15704;48.834;8.736;2023-03-14T13:26:42;8.50;99.90
28484;DHT22;15704;48.834;8.736;2023-03-14T13:29:16;8.30;99.90
28484;DHT22;15704;48.834;8.736;2023-03-14T13:31:53;7.90;99.90
28484;DHT22;15704;48.834;8.736;2023-03-14T13:34:20;7.70;99.90
28484;DHT22;15704;48.834;8.736;2023-03-14T13:36:52;7.80;99.90
28484;DHT22;15704;48.834;8.736;2023-03-14T13:39:20;7.60;99.90
28484;DHT22;15704;48.834;8.736;2023-03-14T13:42:00;7.70;99.90
28484;DHT22;15704;48.834;8.736;2023-03-14T13:44:33;8.00;99.90
28484;DHT22;15704;48.834;8.736;2023-03-14T13:47:02;8.10;99.90
28484;DHT22;15704;48.834;8.736;2023-03-14T13:49:32;7.90;99.90
28484;DHT22;15704;48.834;8.736;2023-03-14T13:52:02;7.50;99.90
28484;DHT22;15704;48.834;8.736;2023-03-14T13:54:31;7.50;99.90
28484;DHT22;15704;48.834;8.736;2023-03-14T13:57:05;7.50;99.90
28484;DHT22;15704;48.834;8.736;2023-03-14T13:59:34;7.30;99.90
28484;DHT22;15704;48.834;8.736;2023-03-14T14:02:04;7.30;99.90
28484;DHT22;15704;48.834;8.736;2023-03-14T14:04:36;7.10;99.90
28484;DHT22;15704;48.834;8.736;2023-03-14T14:07:09;7.20;99.90
28484;DHT22;15704;48.834;8.736;2023-03-14T14:09:52;7.00;99.90
28484;DHT22;15704;48.834;8.736;2023-03-14T14:15:29;7.10;99.90
28484;DHT22;15704;48.834;8.736;2023-03-14T14:17:58;7.30;99.90
28484;DHT22;15704;48.834;8.736;2023-03-14T14:20:31;7.40;99.90
28484;DHT22;15704;48.834;8.736;2023-03-14T14:23:04;7.40;99.90
28484;DHT22;15704;48.834;8.736;2023-03-14T14:25:31;7.40;99.90
28484;DHT22;15704;48.834;8.736;2023-03-14T14:28:13;7.30;99.90
28484;DHT22;15704;48.834;8.736;2023-03-14T14:30:40;7.40;99.90
28484;DHT22;15704;48.834;8.736;2023-03-14T14:33:20;7.50;99.90
28484;DHT22;15704;48.834;8.736;2023-03-14T14:35:53;7.40;99.90
28484;DHT22;15704;48.834;8.736;2023-03-14T14:38:20;7.70;99.90
28484;DHT22;15704;48.834;8.736;2023-03-14T14:40:53;7.70;99.90
28484;DHT22;15704;48.834;8.736;2023-03-14T14:43:23;7.70;99.90
28484;DHT22;15704;48.834;8.736;2023-03-14T14:45:52;7.40;99.90
28484;DHT22;15704;48.834;8.736;2023-03-14T14:48:22;7.50;99.90
28484;DHT22;15704;48.834;8.736;2023-03-14T14:51:00;7.20;99.90
28484;DHT22;15704;48.834;8.736;2023-03-14T14:53:30;7.10;99.90
28484;DHT22;15704;48.834;8.736;2023-03-14T14:56:04;7.10;99.90
28484;DHT22;15704;48.834;8.736;2023-03-14T14:58:36;7.20;99.90
28484;DHT22;15704;48.834;8.736;2023-03-14T15:01:18;7.30;99.90
28484;DHT22;15704;48.834;8.736;2023-03-14T15:03:48;7.20;99.90
28484;DHT22;15704;48.834;8.736;2023-03-14T15:06:17;7.20;99.90
28484;DHT22;15704;48.834;8.736;2023-03-14T15:08:46;7.50;99.90
28484;DHT22;15704;48.834;8.736;2023-03-14T15:11:18;7.50;99.90
28484;DHT22;15704;48.834;8.736;2023-03-14T15:13:45;7.60;99.90
28484;DHT22;15704;48.834;8.736;2023-03-14T15:16:15;7.60;99.90
28484;DHT22;15704;48.834;8.736;2023-03-14T15:18:42;7.40;99.90
28484;DHT22;15704;48.834;8.736;2023-03-14T15:21:10;7.30;99.90
28484;DHT22;15704;48.834;8.736;2023-03-14T15:23:37;7.40;99.90
28484;DHT22;15704;48.834;8.736;2023-03-14T15:26:12;7.60;99.90
28484;DHT22;15704;48.834;8.736;2023-03-14T15:28:40;7.50;99.90
28484;DHT22;15704;48.834;8.736;2023-03-14T15:31:11;7.80;99.90
28484;DHT22;15704;48.834;8.736;2023-03-14T15:33:38;7.80;99.90
28484;DHT22;15704;48.834;8.736;2023-03-14T15:36:14;7.70;99.90
28484;DHT22;15704;48.834;8.736;2023-03-14T15:38:41;7.20;99.90
28484;DHT22;15704;48.834;8.736;2023-03-14T15:41:09;7.50;99.90
28484;DHT22;15704;48.834;8.736;2023-03-14T15:43:36;7.50;99.90
28484;DHT22;15704;48.834;8.736;2023-03-14T15:46:02;7.50;99.90
28484;DHT22;15704;48.834;8.736;2023-03-14T15:48:29;7.50;99.90
28484;DHT22;15704;48.834;8.736;2023-03-14T15:50:56;7.40;99.90
28484;DHT22;15704;48.834;8.736;2023-03-14T15:53:23;7.30;99.90
28484;DHT22;15704;48.834;8.736;2023-03-14T15:55:49;7.30;99.90
28484;DHT22;15704;48.834;8.736;2023-03-14T15:58:18;7.40;99.90
28484;DHT22;15704;48.834;8.736;2023-03-14T16:00:48;7.30;99.90
28484;DHT22;15704;48.834;8.736;2023-03-14T16:03:15;7.10;99.90
28484;DHT22;15704;48.834;8.736;2023-03-14T16:05:42;7.10;99.90
28484;DHT22;15704;48.834;8.736;2023-03-14T16:08:08;7.10;99.90
28484;DHT22;15704;48.834;8.736;2023-03-14T16:10:35;7.00;99.90
28484;DHT22;15704;48.834;8.736;2023-03-14T16:13:02;7.00;99.90
28484;DHT22;15704;48.834;8.736;2023-03-14T16:15:28;7.00;99.90
28484;DHT22;15704;48.834;8.736;2023-03-14T16:17:56;6.90;99.90
28484;DHT22;15704;48.834;8.736;2023-03-14T16:20:23;7.00;99.90
28484;DHT22;15704;48.834;8.736;2023-03-14T16:22:50;7.10;99.90
28484;DHT22;15704;48.834;8.736;2023-03-14T16:25:16;7.10;99.90
28484;DHT22;15704;48.834;8.736;2023-03-14T16:27:44;7.00;99.90
28484;DHT22;15704;48.834;8.736;2023-03-14T16:30:12;7.10;99.90
28484;DHT22;15704;48.834;8.736;2023-03-14T16:32:41;7.10;99.90
28484;DHT22;15704;48.834;8.736;2023-03-14T16:35:11;7.10;99.90
28484;DHT22;15704;48.834;8.736;2023-03-14T16:37:38;7.10;99.90
28484;DHT22;15704;48.834;8.736;2023-03-14T16:40:05;7.10;99.90
28484;DHT22;15704;48.834;8.736;2023-03-14T16:42:38;7.00;99.90
28484;DHT22;15704;48.834;8.736;2023-03-14T16:45:25;7.00;99.90
28484;DHT22;15704;48.834;8.736;2023-03-14T16:47:52;6.70;99.90
28484;DHT22;15704;48.834;8.736;2023-03-14T16:50:18;6.10;99.90
28484;DHT22;15704;48.834;8.736;2023-03-14T16:52:45;5.80;99.90